Revere, North Dakota
Current Conditions -  °F | °C
As of 1:35 PM on Friday 28 Nov 2014 (Local Time) from KBAC Reporting Station
Light Snow Light Snow  
Wind Chill: -1°   Ceiling: 500
Heat Index: 14°   Visibility: 9mi
Dew Point: 10°   Wind: 15mph
Humidity: 86%   Direction: 120°ESE
Pressure: 29.76"   Gusts: 18mph
Location:  47.2843°N, 98.1073°W
Report Text: KBAC 281935Z AUTO 12013G16KT 9SM -SN BKN005 OVC009 M10/M12 A2976 RMK AO2
Loading
Personal Weather Stations






























Interactive Weather Map New forecast layout! Learn more

10-Day Weather Forecast

Advertisements
Track Severe Weather on mobile